sensor_id;sensor_type;location;lat;lon;timestamp;P1;durP1;ratioP1;P2;durP2;ratioP2
6902;SDS011;20232;49.408;8.702;2023-02-15T05:00:34;46.77;;;30.13;;
6902;SDS011;20232;49.408;8.702;2023-02-15T05:02:59;47.20;;;31.53;;
6902;SDS011;20232;49.408;8.702;2023-02-15T05:05:25;48.17;;;29.77;;
6902;SDS011;20232;49.408;8.702;2023-02-15T05:07:50;45.57;;;30.23;;
6902;SDS011;20232;49.408;8.702;2023-02-15T05:10:16;48.23;;;31.73;;
6902;SDS011;20232;49.408;8.702;2023-02-15T05:12:42;47.27;;;31.37;;
6902;SDS011;20232;49.408;8.702;2023-02-15T05:15:07;48.30;;;31.13;;
6902;SDS011;20232;49.408;8.702;2023-02-15T05:17:33;47.57;;;31.70;;
6902;SDS011;20232;49.408;8.702;2023-02-15T05:19:59;40.93;;;28.77;;
6902;SDS011;20232;49.408;8.702;2023-02-15T05:22:24;43.67;;;29.63;;
6902;SDS011;20232;49.408;8.702;2023-02-15T05:24:50;37.43;;;26.63;;
6902;SDS011;20232;49.408;8.702;2023-02-15T05:27:34;36.63;;;25.43;;
6902;SDS011;20232;49.408;8.702;2023-02-15T05:30:20;31.83;;;23.90;;
6902;SDS011;20232;49.408;8.702;2023-02-15T05:32:45;32.77;;;24.43;;
6902;SDS011;20232;49.408;8.702;2023-02-15T05:35:13;31.17;;;23.87;;
6902;SDS011;20232;49.408;8.702;2023-02-15T05:37:42;34.63;;;25.27;;
6902;SDS011;20232;49.408;8.702;2023-02-15T05:40:07;38.67;;;26.97;;
6902;SDS011;20232;49.408;8.702;2023-02-15T05:42:33;38.43;;;26.70;;
6902;SDS011;20232;49.408;8.702;2023-02-15T05:44:59;40.83;;;28.07;;
6902;SDS011;20232;49.408;8.702;2023-02-15T05:47:25;42.73;;;28.47;;
6902;SDS011;20232;49.408;8.702;2023-02-15T05:49:50;40.53;;;28.23;;
6902;SDS011;20232;49.408;8.702;2023-02-15T05:52:16;42.33;;;28.20;;
6902;SDS011;20232;49.408;8.702;2023-02-15T05:54:41;43.40;;;27.30;;
6902;SDS011;20232;49.408;8.702;2023-02-15T05:57:07;46.97;;;29.40;;
6902;SDS011;20232;49.408;8.702;2023-02-15T05:59:32;44.13;;;29.27;;
6902;SDS011;20232;49.408;8.702;2023-02-15T06:01:58;43.37;;;28.93;;
6902;SDS011;20232;49.408;8.702;2023-02-15T06:04:23;48.33;;;30.40;;
6902;SDS011;20232;49.408;8.702;2023-02-15T06:06:49;47.40;;;29.73;;
6902;SDS011;20232;49.408;8.702;2023-02-15T06:09:15;45.60;;;30.17;;
6902;SDS011;20232;49.408;8.702;2023-02-15T06:11:43;47.13;;;30.30;;
6902;SDS011;20232;49.408;8.702;2023-02-15T06:14:09;46.13;;;29.30;;
6902;SDS011;20232;49.408;8.702;2023-02-15T06:16:34;44.27;;;29.00;;
6902;SDS011;20232;49.408;8.702;2023-02-15T06:19:00;43.30;;;29.10;;
6902;SDS011;20232;49.408;8.702;2023-02-15T06:21:26;44.03;;;30.00;;
6902;SDS011;20232;49.408;8.702;2023-02-15T06:23:52;45.67;;;29.53;;
6902;SDS011;20232;49.408;8.702;2023-02-15T06:26:18;48.07;;;29.73;;
6902;SDS011;20232;49.408;8.702;2023-02-15T06:28:43;48.97;;;31.40;;
6902;SDS011;20232;49.408;8.702;2023-02-15T06:31:09;44.77;;;30.50;;
6902;SDS011;20232;49.408;8.702;2023-02-15T06:33:35;43.70;;;28.93;;
6902;SDS011;20232;49.408;8.702;2023-02-15T06:36:00;41.90;;;28.77;;
6902;SDS011;20232;49.408;8.702;2023-02-15T06:38:26;43.63;;;28.70;;
6902;SDS011;20232;49.408;8.702;2023-02-15T06:40:52;43.33;;;28.73;;
6902;SDS011;20232;49.408;8.702;2023-02-15T06:43:18;36.20;;;27.57;;
6902;SDS011;20232;49.408;8.702;2023-02-15T06:45:43;37.93;;;27.13;;
6902;SDS011;20232;49.408;8.702;2023-02-15T06:48:09;35.80;;;26.60;;
6902;SDS011;20232;49.408;8.702;2023-02-15T06:50:36;37.57;;;27.23;;
6902;SDS011;20232;49.408;8.702;2023-02-15T06:53:01;37.77;;;27.27;;
6902;SDS011;20232;49.408;8.702;2023-02-15T06:55:27;37.97;;;27.83;;
6902;SDS011;20232;49.408;8.702;2023-02-15T06:57:53;37.77;;;27.47;;
6902;SDS011;20232;49.408;8.702;2023-02-15T07:00:19;37.27;;;26.60;;
6902;SDS011;20232;49.408;8.702;2023-02-15T07:02:45;36.83;;;26.83;;
6902;SDS011;20232;49.408;8.702;2023-02-15T07:05:10;38.93;;;28.53;;
6902;SDS011;20232;49.408;8.702;2023-02-15T07:07:36;37.87;;;27.57;;
6902;SDS011;20232;49.408;8.702;2023-02-15T07:10:02;37.40;;;27.63;;
6902;SDS011;20232;49.408;8.702;2023-02-15T07:12:28;39.27;;;27.63;;
6902;SDS011;20232;49.408;8.702;2023-02-15T07:15:10;40.87;;;28.07;;
6902;SDS011;20232;49.408;8.702;2023-02-15T07:17:38;40.30;;;28.03;;
6902;SDS011;20232;49.408;8.702;2023-02-15T07:20:08;39.90;;;28.10;;
6902;SDS011;20232;49.408;8.702;2023-02-15T07:22:38;41.73;;;29.37;;
6902;SDS011;20232;49.408;8.702;2023-02-15T07:25:05;42.93;;;28.67;;
6902;SDS011;20232;49.408;8.702;2023-02-15T07:27:32;40.27;;;28.30;;
6902;SDS011;20232;49.408;8.702;2023-02-15T07:29:57;39.20;;;27.07;;
6902;SDS011;20232;49.408;8.702;2023-02-15T07:32:23;41.97;;;29.00;;
6902;SDS011;20232;49.408;8.702;2023-02-15T07:34:51;38.77;;;27.43;;
6902;SDS011;20232;49.408;8.702;2023-02-15T07:37:17;41.67;;;28.80;;
6902;SDS011;20232;49.408;8.702;2023-02-15T07:39:42;41.27;;;28.80;;
6902;SDS011;20232;49.408;8.702;2023-02-15T07:42:08;42.17;;;28.33;;
6902;SDS011;20232;49.408;8.702;2023-02-15T07:44:33;43.43;;;29.87;;
6902;SDS011;20232;49.408;8.702;2023-02-15T07:46:59;39.57;;;27.77;;
6902;SDS011;20232;49.408;8.702;2023-02-15T07:49:24;39.57;;;27.43;;
6902;SDS011;20232;49.408;8.702;2023-02-15T07:51:50;40.93;;;27.27;;
6902;SDS011;20232;49.408;8.702;2023-02-15T07:54:15;37.17;;;26.17;;
6902;SDS011;20232;49.408;8.702;2023-02-15T07:56:41;37.30;;;27.07;;
6902;SDS011;20232;49.408;8.702;2023-02-15T07:59:07;34.80;;;25.50;;
6902;SDS011;20232;49.408;8.702;2023-02-15T08:01:36;38.00;;;26.07;;
6902;SDS011;20232;49.408;8.702;2023-02-15T08:04:03;36.37;;;26.43;;
6902;SDS011;20232;49.408;8.702;2023-02-15T08:06:31;37.03;;;25.30;;
6902;SDS011;20232;49.408;8.702;2023-02-15T08:08:59;34.70;;;26.33;;
6902;SDS011;20232;49.408;8.702;2023-02-15T08:11:26;35.23;;;25.67;;
6902;SDS011;20232;49.408;8.702;2023-02-15T08:16:33;34.23;;;25.37;;
6902;SDS011;20232;49.408;8.702;2023-02-15T08:19:01;36.47;;;26.20;;
6902;SDS011;20232;49.408;8.702;2023-02-15T08:21:33;33.27;;;25.03;;
6902;SDS011;20232;49.408;8.702;2023-02-15T08:24:00;33.40;;;25.23;;
6902;SDS011;20232;49.408;8.702;2023-02-15T08:26:26;35.17;;;26.30;;
6902;SDS011;20232;49.408;8.702;2023-02-15T08:28:53;34.70;;;25.23;;
6902;SDS011;20232;49.408;8.702;2023-02-15T08:31:20;34.07;;;25.30;;
6902;SDS011;20232;49.408;8.702;2023-02-15T08:33:47;38.80;;;25.93;;
6902;SDS011;20232;49.408;8.702;2023-02-15T08:36:15;35.57;;;26.03;;
6902;SDS011;20232;49.408;8.702;2023-02-15T08:38:42;34.97;;;25.03;;
6902;SDS011;20232;49.408;8.702;2023-02-15T08:41:12;39.00;;;26.87;;
6902;SDS011;20232;49.408;8.702;2023-02-15T08:43:43;36.93;;;27.33;;
6902;SDS011;20232;49.408;8.702;2023-02-15T08:46:10;35.67;;;26.30;;
6902;SDS011;20232;49.408;8.702;2023-02-15T08:48:36;38.57;;;27.43;;
6902;SDS011;20232;49.408;8.702;2023-02-15T08:51:09;34.03;;;25.33;;
6902;SDS011;20232;49.408;8.702;2023-02-15T08:53:40;30.73;;;23.73;;
6902;SDS011;20232;49.408;8.702;2023-02-15T08:56:07;31.73;;;23.23;;
6902;SDS011;20232;49.408;8.702;2023-02-15T08:58:34;28.97;;;22.80;;
6902;SDS011;20232;49.408;8.702;2023-02-15T09:01:00;30.73;;;22.37;;
6902;SDS011;20232;49.408;8.702;2023-02-15T09:03:32;30.83;;;23.40;;
6902;SDS011;20232;49.408;8.702;2023-02-15T09:05:59;29.87;;;22.23;;
6902;SDS011;20232;49.408;8.702;2023-02-15T09:08:26;31.77;;;22.57;;
6902;SDS011;20232;49.408;8.702;2023-02-15T09:10:52;27.80;;;21.73;;
6902;SDS011;20232;49.408;8.702;2023-02-15T09:13:18;30.23;;;22.60;;
6902;SDS011;20232;49.408;8.702;2023-02-15T09:15:44;30.97;;;23.20;;
6902;SDS011;20232;49.408;8.702;2023-02-15T09:18:09;32.27;;;24.17;;
6902;SDS011;20232;49.408;8.702;2023-02-15T09:20:37;32.10;;;23.53;;
6902;SDS011;20232;49.408;8.702;2023-02-15T09:23:03;32.57;;;23.20;;
6902;SDS011;20232;49.408;8.702;2023-02-15T09:25:28;30.53;;;22.83;;
6902;SDS011;20232;49.408;8.702;2023-02-15T09:27:54;29.20;;;23.40;;
6902;SDS011;20232;49.408;8.702;2023-02-15T09:30:19;32.00;;;23.37;;
6902;SDS011;20232;49.408;8.702;2023-02-15T09:32:45;32.63;;;23.67;;
6902;SDS011;20232;49.408;8.702;2023-02-15T09:35:12;31.10;;;24.53;;
6902;SDS011;20232;49.408;8.702;2023-02-15T09:37:37;31.27;;;23.80;;
6902;SDS011;20232;49.408;8.702;2023-02-15T09:40:03;32.20;;;23.77;;
6902;SDS011;20232;49.408;8.702;2023-02-15T09:42:36;32.87;;;23.30;;
6902;SDS011;20232;49.408;8.702;2023-02-15T09:45:17;31.90;;;23.47;;
6902;SDS011;20232;49.408;8.702;2023-02-15T09:51:01;32.90;;;23.73;;
6902;SDS011;20232;49.408;8.702;2023-02-15T09:54:07;33.93;;;25.30;;
6902;SDS011;20232;49.408;8.702;2023-02-15T09:56:50;31.97;;;24.50;;
6902;SDS011;20232;49.408;8.702;2023-02-15T10:07:34;30.83;;;23.30;;
6902;SDS011;20232;49.408;8.702;2023-02-15T10:10:28;28.57;;;22.37;;
6902;SDS011;20232;49.408;8.702;2023-02-15T10:19:17;30.27;;;23.07;;
6902;SDS011;20232;49.408;8.702;2023-02-15T10:27:37;27.60;;;22.13;;
6902;SDS011;20232;49.408;8.702;2023-02-15T10:30:22;29.23;;;22.77;;
6902;SDS011;20232;49.408;8.702;2023-02-15T10:33:13;30.03;;;23.00;;
6902;SDS011;20232;49.408;8.702;2023-02-15T10:36:11;33.70;;;23.80;;
6902;SDS011;20232;49.408;8.702;2023-02-15T10:41:53;27.90;;;23.00;;
6902;SDS011;20232;49.408;8.702;2023-02-15T10:55:38;29.33;;;22.97;;
6902;SDS011;20232;49.408;8.702;2023-02-15T11:01:12;31.17;;;22.97;;
6902;SDS011;20232;49.408;8.702;2023-02-15T11:06:48;33.73;;;23.80;;
6902;SDS011;20232;49.408;8.702;2023-02-15T11:09:18;32.67;;;25.10;;
6902;SDS011;20232;49.408;8.702;2023-02-15T11:11:51;31.53;;;24.17;;
6902;SDS011;20232;49.408;8.702;2023-02-15T11:14:23;39.07;;;23.53;;
6902;SDS011;20232;49.408;8.702;2023-02-15T11:19:58;28.10;;;23.63;;
6902;SDS011;20232;49.408;8.702;2023-02-15T11:22:41;32.73;;;24.93;;
6902;SDS011;20232;49.408;8.702;2023-02-15T11:25:26;31.17;;;23.90;;
6902;SDS011;20232;49.408;8.702;2023-02-15T11:27:58;30.40;;;24.43;;
6902;SDS011;20232;49.408;8.702;2023-02-15T11:30:39;29.17;;;24.00;;
6902;SDS011;20232;49.408;8.702;2023-02-15T11:33:20;31.70;;;23.90;;
6902;SDS011;20232;49.408;8.702;2023-02-15T11:35:53;30.20;;;23.30;;
6902;SDS011;20232;49.408;8.702;2023-02-15T11:38:41;29.97;;;23.40;;
6902;SDS011;20232;49.408;8.702;2023-02-15T11:41:09;31.43;;;22.83;;
6902;SDS011;20232;49.408;8.702;2023-02-15T11:43:41;31.37;;;24.23;;
6902;SDS011;20232;49.408;8.702;2023-02-15T11:46:13;32.80;;;24.23;;
6902;SDS011;20232;49.408;8.702;2023-02-15T11:48:40;28.90;;;23.50;;
6902;SDS011;20232;49.408;8.702;2023-02-15T11:51:08;30.70;;;24.03;;
6902;SDS011;20232;49.408;8.702;2023-02-15T11:53:39;31.43;;;24.17;;
6902;SDS011;20232;49.408;8.702;2023-02-15T11:56:04;30.23;;;24.07;;
6902;SDS011;20232;49.408;8.702;2023-02-15T12:03:39;27.40;;;21.70;;
6902;SDS011;20232;49.408;8.702;2023-02-15T12:06:15;28.27;;;23.30;;
6902;SDS011;20232;49.408;8.702;2023-02-15T12:08:43;29.10;;;22.53;;
6902;SDS011;20232;49.408;8.702;2023-02-15T12:11:17;27.23;;;22.03;;
6902;SDS011;20232;49.408;8.702;2023-02-15T12:13:54;27.37;;;20.97;;
6902;SDS011;20232;49.408;8.702;2023-02-15T12:16:21;27.30;;;21.00;;
6902;SDS011;20232;49.408;8.702;2023-02-15T12:18:47;25.50;;;21.63;;
6902;SDS011;20232;49.408;8.702;2023-02-15T12:21:16;27.03;;;21.20;;
6902;SDS011;20232;49.408;8.702;2023-02-15T12:23:58;29.17;;;24.67;;
6902;SDS011;20232;49.408;8.702;2023-02-15T12:26:39;27.10;;;21.53;;
6902;SDS011;20232;49.408;8.702;2023-02-15T12:29:16;27.37;;;20.97;;
6902;SDS011;20232;49.408;8.702;2023-02-15T12:31:46;27.80;;;21.53;;
6902;SDS011;20232;49.408;8.702;2023-02-15T12:34:19;25.17;;;20.30;;
6902;SDS011;20232;49.408;8.702;2023-02-15T12:36:48;24.63;;;20.30;;
6902;SDS011;20232;49.408;8.702;2023-02-15T12:39:26;28.47;;;21.13;;
6902;SDS011;20232;49.408;8.702;2023-02-15T12:44:34;25.30;;;20.57;;
6902;SDS011;20232;49.408;8.702;2023-02-15T12:49:33;22.83;;;20.07;;
6902;SDS011;20232;49.408;8.702;2023-02-15T12:52:05;23.73;;;20.60;;
6902;SDS011;20232;49.408;8.702;2023-02-15T12:54:48;23.83;;;20.83;;
6902;SDS011;20232;49.408;8.702;2023-02-15T12:57:27;22.97;;;19.47;;
6902;SDS011;20232;49.408;8.702;2023-02-15T13:00:11;22.30;;;19.90;;
6902;SDS011;20232;49.408;8.702;2023-02-15T13:02:53;23.53;;;20.27;;
6902;SDS011;20232;49.408;8.702;2023-02-15T13:05:29;23.03;;;19.80;;
6902;SDS011;20232;49.408;8.702;2023-02-15T13:10:59;23.00;;;19.53;;
6902;SDS011;20232;49.408;8.702;2023-02-15T13:13:29;24.60;;;19.10;;
6902;SDS011;20232;49.408;8.702;2023-02-15T13:16:04;21.93;;;19.03;;
6902;SDS011;20232;49.408;8.702;2023-02-15T13:18:39;22.47;;;19.53;;
6902;SDS011;20232;49.408;8.702;2023-02-15T13:21:11;22.13;;;18.67;;
6902;SDS011;20232;49.408;8.702;2023-02-15T13:23:48;28.03;;;22.67;;
6902;SDS011;20232;49.408;8.702;2023-02-15T13:26:21;30.60;;;26.87;;
6902;SDS011;20232;49.408;8.702;2023-02-15T13:28:55;33.50;;;27.73;;
6902;SDS011;20232;49.408;8.702;2023-02-15T13:31:24;36.43;;;28.80;;
6902;SDS011;20232;49.408;8.702;2023-02-15T13:33:55;35.20;;;29.47;;
6902;SDS011;20232;49.408;8.702;2023-02-15T13:36:36;36.23;;;29.47;;
6902;SDS011;20232;49.408;8.702;2023-02-15T13:41:51;32.00;;;27.90;;
6902;SDS011;20232;49.408;8.702;2023-02-15T13:47:46;33.37;;;28.57;;
6902;SDS011;20232;49.408;8.702;2023-02-15T13:53:28;33.10;;;28.03;;
6902;SDS011;20232;49.408;8.702;2023-02-15T13:56:13;34.80;;;28.23;;
6902;SDS011;20232;49.408;8.702;2023-02-15T14:01:56;31.23;;;26.97;;
6902;SDS011;20232;49.408;8.702;2023-02-15T14:10:10;33.23;;;27.77;;
6902;SDS011;20232;49.408;8.702;2023-02-15T14:15:46;33.43;;;27.57;;
6902;SDS011;20232;49.408;8.702;2023-02-15T14:18:36;33.10;;;28.57;;
6902;SDS011;20232;49.408;8.702;2023-02-15T14:21:17;36.13;;;27.13;;
6902;SDS011;20232;49.408;8.702;2023-02-15T14:26:52;31.07;;;26.57;;
6902;SDS011;20232;49.408;8.702;2023-02-15T14:35:15;27.83;;;24.87;;
6902;SDS011;20232;49.408;8.702;2023-02-15T14:38:01;30.80;;;26.60;;
6902;SDS011;20232;49.408;8.702;2023-02-15T14:40:41;30.50;;;26.03;;
6902;SDS011;20232;49.408;8.702;2023-02-15T14:54:08;29.53;;;26.33;;
6902;SDS011;20232;49.408;8.702;2023-02-15T14:56:34;29.93;;;25.10;;
6902;SDS011;20232;49.408;8.702;2023-02-15T15:01:53;28.80;;;25.30;;
6902;SDS011;20232;49.408;8.702;2023-02-15T15:04:26;28.83;;;25.67;;
6902;SDS011;20232;49.408;8.702;2023-02-15T15:07:08;28.80;;;24.93;;
6902;SDS011;20232;49.408;8.702;2023-02-15T15:09:43;28.63;;;24.07;;
6902;SDS011;20232;49.408;8.702;2023-02-15T15:14:46;28.47;;;25.00;;
6902;SDS011;20232;49.408;8.702;2023-02-15T15:17:13;30.73;;;25.60;;
6902;SDS011;20232;49.408;8.702;2023-02-15T15:19:59;28.67;;;24.87;;
6902;SDS011;20232;49.408;8.702;2023-02-15T15:22:27;29.33;;;24.77;;
6902;SDS011;20232;49.408;8.702;2023-02-15T15:25:00;27.83;;;24.50;;
6902;SDS011;20232;49.408;8.702;2023-02-15T15:49:42;29.00;;;24.83;;
6902;SDS011;20232;49.408;8.702;2023-02-15T15:52:15;32.50;;;26.40;;
6902;SDS011;20232;49.408;8.702;2023-02-15T15:54:43;29.73;;;24.47;;
6902;SDS011;20232;49.408;8.702;2023-02-15T15:57:14;30.53;;;25.27;;
6902;SDS011;20232;49.408;8.702;2023-02-15T15:59:52;30.93;;;25.77;;
6902;SDS011;20232;49.408;8.702;2023-02-15T16:02:19;31.50;;;27.23;;
6902;SDS011;20232;49.408;8.702;2023-02-15T16:04:45;29.00;;;25.87;;
6902;SDS011;20232;49.408;8.702;2023-02-15T16:07:23;34.33;;;27.43;;
6902;SDS011;20232;49.408;8.702;2023-02-15T16:10:03;30.50;;;27.20;;
6902;SDS011;20232;49.408;8.702;2023-02-15T16:12:45;30.60;;;27.07;;
6902;SDS011;20232;49.408;8.702;2023-02-15T16:15:16;32.03;;;28.33;;
6902;SDS011;20232;49.408;8.702;2023-02-15T16:17:45;37.53;;;30.93;;
6902;SDS011;20232;49.408;8.702;2023-02-15T16:22:49;38.80;;;32.43;;
6902;SDS011;20232;49.408;8.702;2023-02-15T16:28:24;40.10;;;32.80;;
6902;SDS011;20232;49.408;8.702;2023-02-15T16:31:04;40.57;;;34.53;;
6902;SDS011;20232;49.408;8.702;2023-02-15T16:33:40;42.57;;;33.90;;
6902;SDS011;20232;49.408;8.702;2023-02-15T16:36:11;42.10;;;34.13;;
6902;SDS011;20232;49.408;8.702;2023-02-15T16:41:10;43.57;;;34.83;;
6902;SDS011;20232;49.408;8.702;2023-02-15T16:43:48;41.27;;;34.07;;
6902;SDS011;20232;49.408;8.702;2023-02-15T16:48:54;44.90;;;35.70;;
6902;SDS011;20232;49.408;8.702;2023-02-15T16:51:29;42.17;;;34.13;;
6902;SDS011;20232;49.408;8.702;2023-02-15T16:54:00;46.97;;;36.27;;
6902;SDS011;20232;49.408;8.702;2023-02-15T16:56:38;43.63;;;36.17;;
6902;SDS011;20232;49.408;8.702;2023-02-15T16:59:14;45.00;;;36.57;;
6902;SDS011;20232;49.408;8.702;2023-02-15T17:01:52;47.17;;;36.67;;
6902;SDS011;20232;49.408;8.702;2023-02-15T17:09:40;45.30;;;37.37;;
6902;SDS011;20232;49.408;8.702;2023-02-15T17:17:51;45.73;;;35.67;;
6902;SDS011;20232;49.408;8.702;2023-02-15T17:20:16;47.83;;;36.20;;
6902;SDS011;20232;49.408;8.702;2023-02-15T17:22:44;44.47;;;35.17;;
6902;SDS011;20232;49.408;8.702;2023-02-15T17:25:14;46.53;;;35.67;;
6902;SDS011;20232;49.408;8.702;2023-02-15T17:27:50;45.60;;;36.47;;
6902;SDS011;20232;49.408;8.702;2023-02-15T17:30:37;46.10;;;36.10;;
6902;SDS011;20232;49.408;8.702;2023-02-15T17:33:04;46.47;;;36.80;;
6902;SDS011;20232;49.408;8.702;2023-02-15T17:38:37;45.50;;;34.87;;
6902;SDS011;20232;49.408;8.702;2023-02-15T17:41:03;50.00;;;36.97;;
6902;SDS011;20232;49.408;8.702;2023-02-15T17:43:29;46.97;;;36.23;;
6902;SDS011;20232;49.408;8.702;2023-02-15T17:45:55;45.03;;;34.27;;
6902;SDS011;20232;49.408;8.702;2023-02-15T17:48:34;43.40;;;34.03;;
6902;SDS011;20232;49.408;8.702;2023-02-15T17:51:02;47.27;;;35.30;;
6902;SDS011;20232;49.408;8.702;2023-02-15T17:53:29;48.47;;;37.50;;
6902;SDS011;20232;49.408;8.702;2023-02-15T17:55:56;49.97;;;39.50;;
6902;SDS011;20232;49.408;8.702;2023-02-15T17:58:22;42.80;;;33.57;;
6902;SDS011;20232;49.408;8.702;2023-02-15T18:00:51;44.23;;;34.37;;
6902;SDS011;20232;49.408;8.702;2023-02-15T18:03:46;47.07;;;35.73;;
6902;SDS011;20232;49.408;8.702;2023-02-15T18:06:32;43.67;;;33.63;;
6902;SDS011;20232;49.408;8.702;2023-02-15T18:09:19;45.43;;;34.33;;
6902;SDS011;20232;49.408;8.702;2023-02-15T18:12:12;43.70;;;33.57;;
6902;SDS011;20232;49.408;8.702;2023-02-15T18:14:50;42.77;;;33.80;;
6902;SDS011;20232;49.408;8.702;2023-02-15T18:17:18;45.17;;;35.40;;
6902;SDS011;20232;49.408;8.702;2023-02-15T18:19:46;47.47;;;35.13;;
6902;SDS011;20232;49.408;8.702;2023-02-15T18:22:13;42.00;;;33.73;;
6902;SDS011;20232;49.408;8.702;2023-02-15T18:24:40;44.33;;;33.40;;
6902;SDS011;20232;49.408;8.702;2023-02-15T18:27:07;40.50;;;32.47;;
6902;SDS011;20232;49.408;8.702;2023-02-15T18:29:34;41.93;;;33.17;;
6902;SDS011;20232;49.408;8.702;2023-02-15T18:32:00;43.73;;;33.80;;
6902;SDS011;20232;49.408;8.702;2023-02-15T18:34:35;40.17;;;30.63;;
6902;SDS011;20232;49.408;8.702;2023-02-15T18:37:04;38.73;;;30.00;;
6902;SDS011;20232;49.408;8.702;2023-02-15T18:42:32;40.87;;;30.40;;
6902;SDS011;20232;49.408;8.702;2023-02-15T18:45:00;42.73;;;33.80;;
6902;SDS011;20232;49.408;8.702;2023-02-15T18:47:31;41.40;;;32.80;;
6902;SDS011;20232;49.408;8.702;2023-02-15T18:49:56;42.23;;;32.23;;
6902;SDS011;20232;49.408;8.702;2023-02-15T18:52:23;45.37;;;33.03;;
6902;SDS011;20232;49.408;8.702;2023-02-15T18:54:53;41.43;;;34.17;;
6902;SDS011;20232;49.408;8.702;2023-02-15T18:57:20;44.03;;;33.97;;
6902;SDS011;20232;49.408;8.702;2023-02-15T18:59:46;43.30;;;33.67;;
6902;SDS011;20232;49.408;8.702;2023-02-15T19:02:12;53.13;;;39.83;;
6902;SDS011;20232;49.408;8.702;2023-02-15T19:04:39;55.33;;;41.27;;
6902;SDS011;20232;49.408;8.702;2023-02-15T19:07:05;58.67;;;43.73;;
6902;SDS011;20232;49.408;8.702;2023-02-15T19:09:43;50.87;;;38.37;;
6902;SDS011;20232;49.408;8.702;2023-02-15T19:12:16;43.47;;;33.50;;
6902;SDS011;20232;49.408;8.702;2023-02-15T19:14:43;38.27;;;30.00;;
6902;SDS011;20232;49.408;8.702;2023-02-15T19:17:16;43.13;;;33.07;;
6902;SDS011;20232;49.408;8.702;2023-02-15T19:19:44;43.67;;;33.73;;
6902;SDS011;20232;49.408;8.702;2023-02-15T19:22:13;43.13;;;31.83;;
6902;SDS011;20232;49.408;8.702;2023-02-15T19:24:41;39.50;;;30.87;;
6902;SDS011;20232;49.408;8.702;2023-02-15T19:27:22;42.93;;;31.20;;
6902;SDS011;20232;49.408;8.702;2023-02-15T19:29:51;45.63;;;33.53;;
6902;SDS011;20232;49.408;8.702;2023-02-15T19:32:17;44.07;;;33.27;;
6902;SDS011;20232;49.408;8.702;2023-02-15T19:34:43;43.73;;;32.50;;
6902;SDS011;20232;49.408;8.702;2023-02-15T19:37:14;43.07;;;32.80;;
6902;SDS011;20232;49.408;8.702;2023-02-15T19:39:49;45.20;;;34.83;;
6902;SDS011;20232;49.408;8.702;2023-02-15T19:42:15;47.33;;;34.93;;
6902;SDS011;20232;49.408;8.702;2023-02-15T19:44:44;51.50;;;36.47;;
6902;SDS011;20232;49.408;8.702;2023-02-15T19:47:13;47.97;;;35.47;;
6902;SDS011;20232;49.408;8.702;2023-02-15T19:49:38;42.47;;;33.37;;
6902;SDS011;20232;49.408;8.702;2023-02-15T19:52:04;48.17;;;36.33;;
6902;SDS011;20232;49.408;8.702;2023-02-15T19:54:36;51.63;;;37.57;;
6902;SDS011;20232;49.408;8.702;2023-02-15T19:57:01;40.13;;;31.97;;
6902;SDS011;20232;49.408;8.702;2023-02-15T19:59:31;45.27;;;33.07;;
6902;SDS011;20232;49.408;8.702;2023-02-15T20:01:58;48.80;;;36.37;;
6902;SDS011;20232;49.408;8.702;2023-02-15T20:04:24;43.73;;;34.03;;
6902;SDS011;20232;49.408;8.702;2023-02-15T20:06:51;42.73;;;32.63;;
6902;SDS011;20232;49.408;8.702;2023-02-15T20:09:28;44.67;;;32.90;;
6902;SDS011;20232;49.408;8.702;2023-02-15T20:11:56;42.77;;;32.43;;
6902;SDS011;20232;49.408;8.702;2023-02-15T20:14:21;42.63;;;32.03;;
6902;SDS011;20232;49.408;8.702;2023-02-15T20:16:48;43.43;;;32.67;;
6902;SDS011;20232;49.408;8.702;2023-02-15T20:19:14;44.20;;;32.37;;
6902;SDS011;20232;49.408;8.702;2023-02-15T20:21:40;41.67;;;32.53;;
6902;SDS011;20232;49.408;8.702;2023-02-15T20:24:17;44.03;;;32.60;;
6902;SDS011;20232;49.408;8.702;2023-02-15T20:26:44;42.07;;;31.50;;
6902;SDS011;20232;49.408;8.702;2023-02-15T20:29:14;40.93;;;30.77;;
6902;SDS011;20232;49.408;8.702;2023-02-15T20:31:42;43.60;;;31.77;;
6902;SDS011;20232;49.408;8.702;2023-02-15T20:34:09;43.53;;;31.97;;
6902;SDS011;20232;49.408;8.702;2023-02-15T20:36:35;40.13;;;31.07;;
6902;SDS011;20232;49.408;8.702;2023-02-15T20:39:03;47.00;;;34.47;;
6902;SDS011;20232;49.408;8.702;2023-02-15T20:41:36;41.47;;;30.53;;
6902;SDS011;20232;49.408;8.702;2023-02-15T20:44:18;45.37;;;33.13;;
6902;SDS011;20232;49.408;8.702;2023-02-15T20:46:46;44.87;;;33.03;;
6902;SDS011;20232;49.408;8.702;2023-02-15T20:49:13;41.30;;;32.13;;
6902;SDS011;20232;49.408;8.702;2023-02-15T20:51:39;43.03;;;32.57;;
6902;SDS011;20232;49.408;8.702;2023-02-15T20:54:16;50.70;;;37.63;;
6902;SDS011;20232;49.408;8.702;2023-02-15T20:56:43;42.80;;;32.07;;
6902;SDS011;20232;49.408;8.702;2023-02-15T21:01:48;40.67;;;31.47;;
6902;SDS011;20232;49.408;8.702;2023-02-15T21:04:16;43.53;;;32.40;;
6902;SDS011;20232;49.408;8.702;2023-02-15T21:06:44;43.03;;;33.63;;
6902;SDS011;20232;49.408;8.702;2023-02-15T21:09:14;44.53;;;33.80;;
6902;SDS011;20232;49.408;8.702;2023-02-15T21:11:41;46.90;;;34.47;;
6902;SDS011;20232;49.408;8.702;2023-02-15T21:14:18;43.80;;;33.73;;
6902;SDS011;20232;49.408;8.702;2023-02-15T21:16:46;41.17;;;31.63;;
6902;SDS011;20232;49.408;8.702;2023-02-15T21:19:13;43.07;;;33.47;;
6902;SDS011;20232;49.408;8.702;2023-02-15T21:21:40;44.20;;;34.83;;
6902;SDS011;20232;49.408;8.702;2023-02-15T21:24:08;45.33;;;33.17;;
6902;SDS011;20232;49.408;8.702;2023-02-15T21:26:39;42.77;;;32.43;;
6902;SDS011;20232;49.408;8.702;2023-02-15T21:29:12;44.73;;;34.00;;
6902;SDS011;20232;49.408;8.702;2023-02-15T21:31:42;44.27;;;32.97;;
6902;SDS011;20232;49.408;8.702;2023-02-15T21:34:08;41.90;;;32.53;;
6902;SDS011;20232;49.408;8.702;2023-02-15T21:36:33;44.83;;;34.47;;
6902;SDS011;20232;49.408;8.702;2023-02-15T21:38:59;47.27;;;34.67;;
6902;SDS011;20232;49.408;8.702;2023-02-15T21:41:25;44.07;;;31.13;;
6902;SDS011;20232;49.408;8.702;2023-02-15T21:44:17;40.03;;;28.70;;
6902;SDS011;20232;49.408;8.702;2023-02-15T21:47:03;39.63;;;28.60;;
6902;SDS011;20232;49.408;8.702;2023-02-15T21:49:47;38.07;;;28.67;;
6902;SDS011;20232;49.408;8.702;2023-02-15T21:52:22;39.17;;;28.77;;
6902;SDS011;20232;49.408;8.702;2023-02-15T21:54:48;44.67;;;31.07;;
6902;SDS011;20232;49.408;8.702;2023-02-15T21:57:14;42.73;;;31.27;;
6902;SDS011;20232;49.408;8.702;2023-02-15T21:59:41;62.63;;;45.90;;
6902;SDS011;20232;49.408;8.702;2023-02-15T22:02:22;37.33;;;29.83;;
6902;SDS011;20232;49.408;8.702;2023-02-15T22:04:50;39.73;;;29.93;;
6902;SDS011;20232;49.408;8.702;2023-02-15T22:07:16;40.03;;;30.83;;
6902;SDS011;20232;49.408;8.702;2023-02-15T22:09:42;45.23;;;31.80;;
6902;SDS011;20232;49.408;8.702;2023-02-15T22:12:08;39.47;;;31.63;;
6902;SDS011;20232;49.408;8.702;2023-02-15T22:14:40;43.40;;;32.33;;
6902;SDS011;20232;49.408;8.702;2023-02-15T22:17:28;47.30;;;35.10;;
6902;SDS011;20232;49.408;8.702;2023-02-15T22:19:53;45.97;;;33.77;;
6902;SDS011;20232;49.408;8.702;2023-02-15T22:22:19;44.33;;;33.27;;
6902;SDS011;20232;49.408;8.702;2023-02-15T22:24:45;41.37;;;31.97;;
6902;SDS011;20232;49.408;8.702;2023-02-15T22:29:47;48.40;;;35.73;;
6902;SDS011;20232;49.408;8.702;2023-02-15T22:32:21;42.17;;;32.77;;
6902;SDS011;20232;49.408;8.702;2023-02-15T22:34:50;44.57;;;34.13;;
6902;SDS011;20232;49.408;8.702;2023-02-15T22:37:16;48.13;;;34.57;;